createdAt,value
2023-05-16T00:01:51.853Z,51.73
2023-05-16T00:04:21.591Z,58.49
2023-05-16T00:06:49.887Z,55.94
2023-05-16T00:09:18.162Z,49.71
2023-05-16T00:11:48.267Z,47.33
2023-05-16T00:14:16.548Z,46.26
2023-05-16T00:16:44.877Z,48.70
2023-05-16T00:19:13.768Z,49.67
2023-05-16T00:21:44.754Z,46.81
2023-05-16T00:24:13.137Z,47.65
2023-05-16T00:26:41.433Z,45.99
2023-05-16T00:29:09.656Z,44.86
2023-05-16T00:31:37.918Z,44.04
2023-05-16T00:34:06.315Z,44.46
2023-05-16T00:36:35.823Z,46.11
2023-05-16T00:39:05.445Z,47.37
2023-05-16T00:41:35.251Z,47.00
2023-05-16T00:44:03.641Z,49.01
2023-05-16T00:46:31.979Z,47.89
2023-05-16T00:49:00.324Z,47.48
2023-05-16T00:51:28.586Z,46.87
2023-05-16T00:53:58.134Z,48.17
2023-05-16T00:56:27.785Z,46.78
2023-05-16T00:58:56.031Z,47.84
2023-05-16T01:01:27.518Z,45.97
2023-05-16T01:03:56.185Z,46.42
2023-05-16T01:06:24.615Z,45.43
2023-05-16T01:08:52.811Z,44.81
2023-05-16T01:11:26.860Z,45.26
2023-05-16T01:14:03.906Z,45.94
2023-05-16T01:16:37.620Z,48.86
2023-05-16T01:19:16.543Z,46.29
2023-05-16T01:21:51.269Z,47.93
2023-05-16T01:24:25.225Z,45.72
2023-05-16T01:26:55.540Z,45.81
2023-05-16T01:29:23.892Z,45.96
2023-05-16T01:31:52.145Z,49.62
2023-05-16T01:34:20.447Z,47.06
2023-05-16T01:36:54.545Z,46.84
2023-05-16T01:39:27.866Z,48.80
2023-05-16T01:42:03.556Z,48.33
2023-05-16T01:44:34.967Z,49.69
2023-05-16T01:47:07.329Z,55.02
2023-05-16T01:49:37.495Z,52.54
2023-05-16T01:52:10.918Z,51.50
2023-05-16T01:54:40.967Z,54.17
2023-05-16T01:57:11.676Z,54.33
2023-05-16T01:59:40.631Z,53.84
2023-05-16T02:02:08.852Z,53.50
2023-05-16T02:04:37.075Z,52.20
2023-05-16T02:07:06.052Z,53.32
2023-05-16T02:09:34.451Z,52.46
2023-05-16T02:12:02.930Z,49.55
2023-05-16T02:14:32.523Z,51.28
2023-05-16T02:17:00.872Z,49.39
2023-05-16T02:19:29.302Z,48.75
2023-05-16T02:21:57.530Z,48.72
2023-05-16T02:24:26.053Z,47.08
2023-05-16T02:26:54.318Z,47.04
2023-05-16T02:29:22.513Z,45.70
2023-05-16T02:31:52.085Z,45.45
2023-05-16T02:34:20.333Z,47.44
2023-05-16T02:36:48.538Z,44.48
2023-05-16T02:39:16.798Z,45.69
2023-05-16T02:41:45.036Z,47.00
2023-05-16T02:44:13.248Z,45.29
2023-05-16T02:46:41.630Z,44.60
2023-05-16T02:49:11.273Z,45.08
2023-05-16T02:51:39.490Z,44.13
2023-05-16T02:54:09.897Z,45.67
2023-05-16T02:56:38.271Z,45.07
2023-05-16T02:59:06.986Z,44.44
2023-05-16T03:01:35.399Z,44.55
2023-05-16T03:04:03.783Z,43.97
2023-05-16T03:06:33.642Z,45.19
2023-05-16T03:09:01.979Z,46.73
2023-05-16T03:11:30.224Z,47.17
2023-05-16T03:14:01.504Z,46.91
2023-05-16T03:16:30.580Z,47.27
2023-05-16T03:18:58.970Z,46.23
2023-05-16T03:21:27.381Z,48.42
2023-05-16T03:23:57.102Z,47.25
2023-05-16T03:26:25.820Z,48.37
2023-05-16T03:28:54.094Z,50.66
2023-05-16T03:31:22.379Z,46.72
2023-05-16T03:33:50.864Z,46.57
2023-05-16T03:36:19.848Z,45.75
2023-05-16T03:38:48.106Z,45.87
2023-05-16T03:41:17.783Z,46.48
2023-05-16T03:43:46.032Z,48.87
2023-05-16T03:46:14.497Z,48.38
2023-05-16T03:48:42.835Z,47.15
2023-05-16T03:51:11.068Z,46.46
2023-05-16T03:53:39.439Z,46.43
2023-05-16T03:56:08.028Z,46.52
2023-05-16T03:58:37.773Z,46.04
2023-05-16T04:01:06.160Z,45.93
2023-05-16T04:03:34.880Z,45.80
2023-05-16T04:06:03.189Z,47.42
2023-05-16T04:08:31.779Z,47.28
2023-05-16T04:11:00.012Z,47.61
2023-05-16T04:13:28.345Z,47.76
2023-05-16T04:15:58.009Z,50.82
2023-05-16T04:18:26.248Z,53.29
2023-05-16T04:20:54.481Z,53.69
2023-05-16T04:23:22.710Z,54.81
2023-05-16T04:25:51.073Z,51.36
2023-05-16T04:28:19.277Z,55.65
2023-05-16T04:30:47.691Z,52.60
2023-05-16T04:33:17.659Z,50.66
2023-05-16T04:35:45.873Z,49.66
2023-05-16T04:38:14.142Z,48.37
2023-05-16T04:40:43.199Z,48.88
2023-05-16T04:43:11.568Z,48.06
2023-05-16T04:45:39.829Z,46.53
2023-05-16T04:48:08.340Z,47.99
2023-05-16T04:50:37.974Z,47.79
2023-05-16T04:53:06.267Z,47.59
2023-05-16T04:55:34.571Z,49.17
2023-05-16T04:58:02.798Z,51.07
2023-05-16T05:00:31.342Z,50.40
2023-05-16T05:02:59.609Z,49.51
2023-05-16T05:05:28.275Z,50.83
2023-05-16T05:07:59.336Z,50.99
2023-05-16T05:10:28.539Z,51.08
2023-05-16T05:12:56.763Z,48.56
2023-05-16T05:15:25.252Z,48.54
2023-05-16T05:17:53.663Z,48.71
2023-05-16T05:20:22.090Z,52.18
2023-05-16T05:22:50.293Z,52.55
2023-05-16T05:25:19.901Z,54.95
2023-05-16T05:27:48.200Z,53.89
2023-05-16T05:30:16.507Z,51.06
2023-05-16T05:32:44.713Z,51.56
2023-05-16T05:35:12.993Z,50.47
2023-05-16T05:37:41.195Z,51.61
2023-05-16T05:40:10.425Z,52.47
2023-05-16T05:42:39.974Z,49.94
2023-05-16T05:45:09.124Z,51.63
2023-05-16T05:47:37.399Z,48.60
2023-05-16T05:50:06.832Z,48.96
2023-05-16T05:52:35.102Z,47.13
2023-05-16T05:55:03.338Z,47.59
2023-05-16T05:57:31.724Z,47.96
2023-05-16T06:00:01.285Z,46.35
2023-05-16T06:02:29.763Z,46.54
2023-05-16T06:04:58.191Z,48.37
2023-05-16T06:07:26.463Z,48.20
2023-05-16T06:09:54.670Z,47.68
2023-05-16T06:12:22.979Z,50.26
2023-05-16T06:14:51.201Z,47.33
2023-05-16T06:17:20.792Z,47.01
2023-05-16T06:19:49.319Z,45.92
2023-05-16T06:22:17.596Z,47.85
2023-05-16T06:24:45.958Z,49.00
2023-05-16T06:27:14.171Z,47.71
2023-05-16T06:29:42.467Z,44.39
2023-05-16T06:32:13.067Z,45.76
2023-05-16T06:34:43.105Z,46.49
2023-05-16T06:37:11.345Z,45.25
2023-05-16T06:39:39.622Z,46.11
2023-05-16T06:42:08.072Z,44.17
2023-05-16T06:44:36.360Z,46.41
2023-05-16T06:47:05.032Z,48.62
2023-05-16T06:49:33.325Z,50.55
2023-05-16T06:52:03.674Z,50.35
2023-05-16T06:54:32.390Z,48.04
2023-05-16T06:57:00.785Z,50.19
2023-05-16T06:59:29.127Z,47.82
2023-05-16T07:01:57.461Z,45.99
2023-05-16T07:04:25.805Z,45.41
2023-05-16T07:06:54.496Z,45.68
2023-05-16T07:09:24.158Z,46.15
2023-05-16T07:11:52.449Z,46.01
2023-05-16T07:14:20.793Z,45.41
2023-05-16T07:16:49.081Z,44.80
2023-05-16T07:19:17.467Z,43.79
2023-05-16T07:21:45.741Z,43.64
2023-05-16T07:24:13.994Z,42.90
2023-05-16T07:26:43.672Z,43.62
2023-05-16T07:29:11.983Z,43.50
2023-05-16T07:31:40.261Z,43.83
2023-05-16T07:34:08.590Z,44.08
2023-05-16T07:36:36.887Z,44.05
2023-05-16T07:39:05.535Z,44.21
2023-05-16T07:41:33.797Z,42.70
2023-05-16T07:44:03.386Z,42.54
2023-05-16T07:46:31.684Z,42.77
2023-05-16T07:49:00.038Z,42.86
2023-05-16T07:51:28.860Z,42.30
2023-05-16T07:53:57.103Z,41.89
2023-05-16T07:56:25.392Z,42.07
2023-05-16T07:58:53.773Z,41.99
2023-05-16T08:01:23.634Z,41.33
2023-05-16T08:03:53.575Z,42.21
2023-05-16T08:06:21.876Z,41.51
2023-05-16T08:08:50.179Z,41.01
2023-05-16T08:11:19.794Z,40.42
2023-05-16T08:13:49.572Z,40.12
2023-05-16T08:16:18.450Z,40.11
2023-05-16T08:18:48.160Z,41.39
2023-05-16T08:21:16.752Z,40.65
2023-05-16T08:23:45.070Z,41.59
2023-05-16T08:26:13.338Z,42.09
2023-05-16T08:28:41.638Z,41.60
2023-05-16T08:31:11.969Z,40.12
2023-05-16T08:33:40.360Z,41.65
2023-05-16T08:36:10.958Z,46.16
2023-05-16T08:38:38.995Z,43.17
2023-05-16T08:41:07.739Z,42.51
2023-05-16T08:43:36.755Z,44.80
2023-05-16T08:46:05.144Z,43.59
2023-05-16T08:48:34.316Z,44.08
2023-05-16T08:51:04.073Z,44.21
2023-05-16T08:53:41.091Z,43.19
2023-05-16T08:56:09.855Z,46.94
2023-05-16T08:58:38.411Z,48.74
2023-05-16T09:01:08.951Z,51.17
2023-05-16T09:03:38.407Z,50.17
2023-05-16T09:06:08.123Z,50.39
2023-05-16T09:08:38.107Z,50.81
2023-05-16T09:11:06.534Z,51.05
2023-05-16T09:13:34.884Z,46.93
2023-05-16T09:16:13.457Z,48.54
2023-05-16T09:18:42.251Z,46.03
2023-05-16T09:21:11.298Z,45.58
2023-05-16T09:23:40.909Z,47.09
2023-05-16T09:26:09.524Z,45.35
2023-05-16T09:28:39.430Z,46.91
2023-05-16T09:31:21.973Z,48.63
2023-05-16T09:33:51.161Z,48.99
2023-05-16T09:36:19.702Z,49.97
2023-05-16T09:38:49.568Z,53.49
2023-05-16T09:41:17.929Z,57.07
2023-05-16T09:43:46.429Z,56.69
2023-05-16T09:46:15.650Z,54.30
2023-05-16T09:48:46.771Z,58.92
2023-05-16T09:51:16.229Z,55.50
2023-05-16T09:53:44.708Z,51.85
2023-05-16T09:56:15.765Z,49.73
2023-05-16T09:58:44.978Z,50.38
2023-05-16T10:01:13.501Z,49.75
2023-05-16T10:03:43.271Z,50.16
2023-05-16T10:06:11.856Z,54.08
2023-05-16T10:08:43.135Z,51.57
2023-05-16T10:11:11.717Z,50.25
2023-05-16T10:13:41.607Z,50.83
2023-05-16T10:16:13.486Z,54.19
2023-05-16T10:18:42.409Z,53.29
2023-05-16T10:21:12.249Z,52.50
2023-05-16T10:23:43.523Z,53.18
2023-05-16T10:26:14.541Z,52.44
2023-05-16T10:28:44.700Z,52.26
2023-05-16T10:31:13.041Z,54.52
2023-05-16T10:33:41.899Z,57.63
2023-05-16T10:36:11.334Z,56.93
2023-05-16T10:38:39.961Z,51.08
2023-05-16T10:41:08.881Z,52.42
2023-05-16T10:43:37.242Z,53.08
2023-05-16T10:46:09.715Z,50.93
2023-05-16T10:48:39.860Z,54.70
2023-05-16T10:51:35.476Z,52.52
2023-05-16T10:54:08.467Z,52.50
2023-05-16T10:56:37.355Z,53.18
2023-05-16T10:59:05.973Z,48.83
2023-05-16T11:01:36.182Z,51.24
2023-05-16T11:04:10.306Z,47.51
2023-05-16T11:06:51.672Z,50.23
2023-05-16T11:09:23.444Z,52.00
2023-05-16T11:12:02.807Z,56.71
2023-05-16T11:14:38.244Z,53.11
2023-05-16T11:17:13.298Z,47.88
2023-05-16T11:19:43.937Z,44.95
2023-05-16T11:22:22.912Z,50.87
2023-05-16T11:24:53.490Z,49.16
2023-05-16T11:27:26.774Z,51.15
2023-05-16T11:29:56.814Z,46.33
2023-05-16T11:32:26.673Z,50.80
2023-05-16T11:34:55.425Z,49.70
2023-05-16T11:37:23.869Z,47.76
2023-05-16T11:39:52.218Z,51.12
2023-05-16T11:42:20.821Z,50.11
2023-05-16T11:44:49.081Z,52.49
2023-05-16T11:47:17.836Z,53.53
2023-05-16T11:49:48.862Z,53.23
2023-05-16T11:52:18.350Z,60.11
2023-05-16T11:54:46.881Z,55.18
2023-05-16T11:57:15.296Z,54.25
2023-05-16T11:59:43.777Z,52.53
2023-05-16T12:02:12.189Z,52.74
2023-05-16T12:04:40.773Z,49.48
2023-05-16T12:07:10.704Z,49.59
2023-05-16T12:09:38.933Z,47.29
2023-05-16T12:12:08.952Z,48.10
2023-05-16T12:14:37.285Z,48.41
2023-05-16T12:17:06.001Z,48.61
2023-05-16T12:19:34.382Z,48.75
2023-05-16T12:22:02.843Z,45.64
2023-05-16T12:24:33.047Z,47.14
2023-05-16T12:27:01.297Z,46.63
2023-05-16T12:29:29.626Z,49.59
2023-05-16T12:31:57.950Z,48.86
2023-05-16T12:34:30.245Z,52.35
2023-05-16T12:37:01.944Z,52.36
2023-05-16T12:39:39.735Z,53.41
2023-05-16T12:42:09.648Z,55.75
2023-05-16T12:44:38.008Z,57.93
2023-05-16T12:47:13.126Z,54.39
2023-05-16T12:49:45.917Z,60.32
2023-05-16T12:52:23.123Z,59.46
2023-05-16T12:54:53.791Z,60.26
2023-05-16T12:57:22.025Z,59.90
2023-05-16T12:59:50.421Z,69.51
2023-05-16T13:02:18.997Z,55.85
2023-05-16T13:04:47.545Z,55.46
2023-05-16T13:07:17.652Z,49.73
2023-05-16T13:09:45.953Z,62.93
2023-05-16T13:12:15.875Z,65.67
2023-05-16T13:14:45.172Z,58.99
2023-05-16T13:17:13.440Z,63.34
2023-05-16T13:19:41.743Z,60.93
2023-05-16T13:22:10.033Z,67.17
2023-05-16T13:24:38.301Z,68.71
2023-05-16T13:27:06.794Z,75.94
2023-05-16T13:29:36.534Z,85.31
2023-05-16T13:32:05.269Z,79.66
2023-05-16T13:34:33.694Z,81.04
2023-05-16T13:37:01.976Z,78.26
2023-05-16T13:39:30.363Z,73.94
2023-05-16T13:41:59.295Z,74.53
2023-05-16T13:44:27.575Z,80.00
2023-05-16T13:46:57.802Z,78.02
2023-05-16T13:49:26.257Z,86.61
2023-05-16T13:51:54.548Z,86.54
2023-05-16T13:54:22.896Z,95.23
2023-05-16T13:56:51.190Z,100.00
2023-05-16T13:59:31.837Z,100.00
2023-05-16T14:02:09.026Z,100.00
2023-05-16T14:04:37.340Z,100.00
2023-05-16T14:07:05.972Z,100.00
2023-05-16T14:09:35.408Z,100.00
2023-05-16T14:12:04.226Z,100.00
2023-05-16T14:14:35.711Z,100.00
2023-05-16T14:17:04.423Z,100.00
2023-05-16T14:19:54.713Z,100.00
2023-05-16T14:22:25.944Z,100.00
2023-05-16T14:25:00.426Z,100.00
2023-05-16T14:27:28.680Z,100.00
2023-05-16T14:30:09.603Z,100.00
2023-05-16T14:33:56.401Z,100.00
2023-05-16T14:36:30.171Z,100.00
2023-05-16T14:38:58.263Z,100.00
2023-05-16T14:41:26.688Z,100.00
2023-05-16T14:43:56.298Z,100.00
2023-05-16T14:46:24.606Z,100.00
2023-05-16T14:48:52.674Z,100.00
